Time;durP1;ratioP1;P1;durP2;ratioP2;P2;SDS_P1;SDS_P2;PMS_P1;PMS_P2;Temp;Humidity;BMP_temperature;BMP_pressure;BME280_temperature;BME280_humidity;BME280_pressure;Samples;Min_cycle;Max_cycle;Signal;HPM_P1;HPM_P2
2023/09/04 00:02:42;;;;;;;6.70;3.47;;;17.70;95.90;;;;;;6273215;22;20396;-71
2023/09/04 00:05:31;;;;;;;6.70;4.35;;;17.70;96.00;;;;;;6272176;22;20526;-72
2023/09/04 00:08:18;;;;;;;4.45;3.10;;;17.60;96.00;;;;;;6249672;22;20086;-73
2023/09/04 00:11:04;;;;;;;6.80;4.47;;;17.60;96.20;;;;;;6273784;22;20011;-73
2023/09/04 00:13:50;;;;;;;5.82;3.55;;;17.60;96.30;;;;;;6278969;22;20008;-73
2023/09/04 00:16:36;;;;;;;6.95;3.55;;;17.60;96.60;;;;;;6272355;22;20004;-72
2023/09/04 00:19:23;;;;;;;5.43;3.47;;;17.60;96.40;;;;;;6271816;22;20027;-73
2023/09/04 00:22:09;;;;;;;6.13;3.95;;;17.60;96.50;;;;;;6249089;22;20023;-72
2023/09/04 00:24:54;;;;;;;6.50;3.90;;;17.60;96.50;;;;;;6270983;22;20012;-72
2023/09/04 00:27:41;;;;;;;5.75;3.60;;;17.60;96.60;;;;;;6269255;22;20065;-72
2023/09/04 00:30:26;;;;;;;4.68;3.30;;;17.60;96.70;;;;;;6272448;22;20019;-72
2023/09/04 00:33:12;;;;;;;5.90;3.50;;;17.50;96.60;;;;;;6272122;22;20007;-72
2023/09/04 00:35:59;;;;;;;5.60;3.17;;;17.50;96.70;;;;;;6270154;22;20394;-71
2023/09/04 00:38:45;;;;;;;5.97;3.65;;;17.50;96.70;;;;;;6271869;22;20004;-72
2023/09/04 00:41:32;;;;;;;4.97;3.45;;;17.50;96.80;;;;;;6270993;22;20361;-72
2023/09/04 00:44:18;;;;;;;6.65;3.75;;;17.50;96.80;;;;;;6269496;22;20088;-72
2023/09/04 00:47:04;;;;;;;4.78;3.15;;;17.40;96.90;;;;;;6272047;22;20043;-72
2023/09/04 00:49:52;;;;;;;4.57;3.28;;;17.40;96.90;;;;;;6271775;22;20090;-71
2023/09/04 00:52:38;;;;;;;6.07;3.25;;;17.40;96.90;;;;;;6270186;22;20008;-71
2023/09/04 00:55:25;;;;;;;4.90;3.15;;;17.40;96.90;;;;;;6249254;22;20087;-71
2023/09/04 00:58:11;;;;;;;5.53;3.45;;;17.40;97.00;;;;;;6270580;22;20442;-71
2023/09/04 01:00:57;;;;;;;4.72;3.35;;;17.40;97.10;;;;;;6271018;22;20453;-71
2023/09/04 01:03:43;;;;;;;5.55;3.22;;;17.30;97.10;;;;;;6272566;22;20007;-71
2023/09/04 01:06:29;;;;;;;4.50;3.22;;;17.30;97.20;;;;;;6270427;22;20339;-71
2023/09/04 01:09:15;;;;;;;4.00;2.88;;;17.30;97.20;;;;;;6271685;22;20007;-71
2023/09/04 01:12:11;;;;;;;4.72;3.08;;;17.30;97.40;;;;;;6270777;22;20014;-71
2023/09/04 01:14:59;;;;;;;6.60;3.33;;;17.30;97.50;;;;;;6270355;22;20015;-71
2023/09/04 01:17:45;;;;;;;5.65;3.58;;;17.30;97.50;;;;;;6269870;22;20023;-71
2023/09/04 01:20:32;;;;;;;4.88;3.35;;;17.30;97.50;;;;;;6272434;22;20453;-72
2023/09/04 01:23:18;;;;;;;7.13;2.95;;;17.30;97.60;;;;;;6272369;22;20011;-72
2023/09/04 01:26:20;;;;;;;5.57;2.90;;;17.30;97.50;;;;;;6268462;22;20019;-72
2023/09/04 01:29:25;;;;;;;5.18;3.33;;;17.30;97.60;;;;;;6270872;22;20019;-72
2023/09/04 01:32:20;;;;;;;4.07;2.97;;;17.20;97.50;;;;;;6272200;22;20012;-72
2023/09/04 01:35:10;;;;;;;5.18;3.20;;;17.20;97.60;;;;;;6270025;22;20012;-72
2023/09/04 01:37:57;;;;;;;5.25;2.95;;;17.20;97.70;;;;;;6271247;22;20720;-72
2023/09/04 01:40:43;;;;;;;8.35;2.90;;;17.20;97.80;;;;;;6269517;22;20015;-72
2023/09/04 01:43:29;;;;;;;5.88;3.17;;;17.20;97.90;;;;;;6268508;22;20035;-72
2023/09/04 01:46:15;;;;;;;6.10;3.42;;;17.20;98.00;;;;;;6270407;22;20047;-72
2023/09/04 01:49:01;;;;;;;5.30;2.78;;;17.20;98.10;;;;;;6249784;22;20011;-72
2023/09/04 01:51:47;;;;;;;4.07;2.78;;;17.20;98.10;;;;;;6270269;22;20385;-74
2023/09/04 01:54:33;;;;;;;6.18;3.20;;;17.20;98.10;;;;;;6271352;22;20027;-75
2023/09/04 01:57:19;;;;;;;4.65;2.92;;;17.20;98.20;;;;;;6271493;22;20018;-74
2023/09/04 02:00:06;;;;;;;6.97;3.42;;;17.20;98.20;;;;;;6271468;22;20067;-74
2023/09/04 02:02:52;;;;;;;5.13;3.45;;;17.20;98.30;;;;;;6269589;22;20021;-73
2023/09/04 02:05:39;;;;;;;4.72;3.20;;;17.20;98.40;;;;;;6272000;22;20004;-72
2023/09/04 02:08:25;;;;;;;6.20;3.63;;;17.10;98.40;;;;;;6271953;22;20073;-73
2023/09/04 02:11:11;;;;;;;4.35;3.03;;;17.10;98.40;;;;;;6272062;22;20499;-72
2023/09/04 02:13:56;;;;;;;5.78;3.67;;;17.10;98.50;;;;;;6268920;22;20023;-73
2023/09/04 02:16:42;;;;;;;5.35;2.88;;;17.10;98.50;;;;;;6271007;22;20008;-73
2023/09/04 02:19:28;;;;;;;5.18;3.47;;;17.10;98.60;;;;;;6271248;22;20177;-73
2023/09/04 02:22:14;;;;;;;6.40;3.65;;;17.10;98.70;;;;;;6267161;22;20028;-73
2023/09/04 02:25:00;;;;;;;5.38;2.95;;;17.10;98.70;;;;;;6250712;22;20069;-72
2023/09/04 02:27:46;;;;;;;5.07;3.47;;;17.00;98.80;;;;;;6267463;22;20016;-73
2023/09/04 02:30:36;;;;;;;6.63;3.42;;;17.00;98.80;;;;;;6252183;22;20011;-73
2023/09/04 02:33:22;;;;;;;4.32;2.80;;;17.00;98.90;;;;;;6269701;22;20004;-73
2023/09/04 02:36:08;;;;;;;8.85;3.25;;;17.00;98.90;;;;;;6270734;22;20340;-73
2023/09/04 02:38:55;;;;;;;6.00;3.40;;;17.00;99.00;;;;;;6271099;22;20011;-73
2023/09/04 02:41:41;;;;;;;4.05;3.20;;;17.00;99.00;;;;;;6271443;22;20026;-74
2023/09/04 02:44:29;;;;;;;5.15;3.55;;;17.00;99.00;;;;;;6270786;22;20032;-74
2023/09/04 02:47:15;;;;;;;5.97;3.25;;;17.00;99.10;;;;;;6270368;22;20020;-74
2023/09/04 02:50:01;;;;;;;6.07;3.55;;;16.90;99.20;;;;;;6268557;22;20004;-72
2023/09/04 02:52:46;;;;;;;5.97;3.63;;;16.90;99.10;;;;;;6271057;22;20050;-72
2023/09/04 02:55:32;;;;;;;5.45;2.97;;;16.90;99.10;;;;;;6270373;22;20035;-72
2023/09/04 02:58:19;;;;;;;4.47;2.97;;;16.90;99.20;;;;;;6273310;22;20004;-72
2023/09/04 03:01:05;;;;;;;8.30;3.60;;;16.90;99.20;;;;;;6271268;22;20011;-72
2023/09/04 03:03:51;;;;;;;4.13;2.72;;;16.90;99.20;;;;;;6272124;22;20014;-72
2023/09/04 03:06:38;;;;;;;4.60;3.50;;;16.90;99.20;;;;;;6272731;22;20014;-72
2023/09/04 03:09:24;;;;;;;5.47;3.42;;;16.80;99.20;;;;;;6273278;22;20015;-72
2023/09/04 03:12:10;;;;;;;6.63;3.45;;;16.80;99.30;;;;;;6272836;22;20461;-73
2023/09/04 03:15:01;;;;;;;4.68;3.33;;;16.80;99.30;;;;;;6272674;22;20011;-72
2023/09/04 03:17:47;;;;;;;6.93;3.25;;;16.80;99.30;;;;;;6271548;22;20042;-72
2023/09/04 03:20:33;;;;;;;5.05;3.42;;;16.80;99.30;;;;;;6269388;22;20077;-72
2023/09/04 03:23:19;;;;;;;6.15;3.25;;;16.80;99.40;;;;;;6277707;22;20008;-71
2023/09/04 03:26:05;;;;;;;5.38;3.17;;;16.70;99.30;;;;;;6273567;22;20018;-69
2023/09/04 03:28:51;;;;;;;5.03;3.33;;;16.70;99.40;;;;;;6273370;22;20449;-69
2023/09/04 03:31:37;;;;;;;5.13;3.47;;;16.60;99.50;;;;;;6272160;22;20326;-68
2023/09/04 03:34:23;;;;;;;8.93;3.45;;;16.60;99.60;;;;;;6270196;22;20007;-69
2023/09/04 03:37:09;;;;;;;4.75;3.40;;;16.60;99.70;;;;;;6272234;22;20507;-69
2023/09/04 03:40:14;;;;;;;5.32;3.53;;;16.60;99.80;;;;;;6270026;22;20361;-71
2023/09/04 03:43:00;;;;;;;4.72;3.20;;;16.60;99.80;;;;;;6249984;22;20022;-70
2023/09/04 03:45:46;;;;;;;4.10;2.88;;;16.60;99.80;;;;;;6252862;22;20045;-73
2023/09/04 03:48:33;;;;;;;5.13;3.40;;;16.60;99.90;;;;;;6272615;22;20453;-68
2023/09/04 03:51:18;;;;;;;4.82;2.92;;;16.60;99.90;;;;;;6272674;22;20417;-69
2023/09/04 03:54:04;;;;;;;4.95;3.60;;;16.50;99.90;;;;;;6271718;22;20015;-68
2023/09/04 03:56:50;;;;;;;3.83;3.08;;;16.50;99.90;;;;;;6272555;22;20004;-69
2023/09/04 03:59:36;;;;;;;4.82;3.45;;;16.50;99.90;;;;;;6271960;22;20453;-68
2023/09/04 04:02:22;;;;;;;6.53;3.22;;;16.50;99.90;;;;;;6270617;22;20338;-69
2023/09/04 04:05:13;;;;;;;4.10;3.25;;;16.50;99.90;;;;;;6269307;22;20035;-68
2023/09/04 04:07:59;;;;;;;4.60;3.58;;;16.40;99.90;;;;;;6270674;22;20349;-68
2023/09/04 04:10:45;;;;;;;5.32;3.08;;;16.40;99.90;;;;;;6269221;22;20007;-68
2023/09/04 04:13:31;;;;;;;7.15;3.63;;;16.40;99.90;;;;;;6272411;22;20090;-68
2023/09/04 04:16:17;;;;;;;5.32;3.33;;;16.40;99.90;;;;;;6271416;22;20011;-67
2023/09/04 04:19:04;;;;;;;6.15;3.53;;;16.40;99.90;;;;;;6271623;22;20051;-67
2023/09/04 04:21:50;;;;;;;5.38;3.67;;;16.40;99.90;;;;;;6271873;22;20469;-67
2023/09/04 04:24:36;;;;;;;4.88;3.75;;;16.30;99.90;;;;;;6271944;22;20014;-68
2023/09/04 04:27:22;;;;;;;5.68;3.65;;;16.30;99.90;;;;;;6271541;22;20008;-67
2023/09/04 04:30:08;;;;;;;5.85;3.33;;;16.30;99.90;;;;;;6269544;22;20321;-67
2023/09/04 04:32:54;;;;;;;7.60;4.10;;;16.30;99.90;;;;;;6272075;22;20015;-67
2023/09/04 04:35:40;;;;;;;4.63;3.42;;;16.20;99.90;;;;;;6272295;22;20008;-71
2023/09/04 04:38:26;;;;;;;9.75;3.78;;;16.20;99.90;;;;;;6272613;22;20018;-72
2023/09/04 04:41:13;;;;;;;5.35;3.90;;;16.20;99.90;;;;;;6271938;22;20349;-70
2023/09/04 04:43:59;;;;;;;5.50;4.05;;;16.30;99.90;;;;;;6270797;22;20015;-70
2023/09/04 04:46:48;;;;;;;4.95;3.15;;;16.30;99.90;;;;;;6271315;22;20448;-68
2023/09/04 04:49:34;;;;;;;8.05;4.05;;;16.30;99.90;;;;;;6272084;22;20014;-68
2023/09/04 04:52:20;;;;;;;7.80;3.45;;;16.30;99.90;;;;;;6269868;22;20380;-68
2023/09/04 04:55:07;;;;;;;6.70;4.30;;;16.30;99.90;;;;;;6271778;22;20145;-68
2023/09/04 04:57:53;;;;;;;5.75;3.90;;;16.30;99.90;;;;;;6270929;22;20014;-68
2023/09/04 05:00:39;;;;;;;6.63;3.55;;;16.30;99.90;;;;;;6270705;22;20413;-68
2023/09/04 05:03:25;;;;;;;5.65;3.60;;;16.30;99.90;;;;;;6269919;22;20007;-68
2023/09/04 05:06:10;;;;;;;5.82;3.50;;;16.30;99.90;;;;;;6270654;22;20466;-68
2023/09/04 05:08:56;;;;;;;5.38;3.78;;;16.30;99.90;;;;;;6269178;22;20004;-68
2023/09/04 05:11:42;;;;;;;5.20;3.50;;;16.30;99.90;;;;;;6270211;22;20118;-68
2023/09/04 05:14:29;;;;;;;4.93;2.92;;;16.30;99.90;;;;;;6271435;22;20011;-68
2023/09/04 05:17:15;;;;;;;7.88;3.35;;;16.40;99.90;;;;;;6246958;22;20016;-68
2023/09/04 05:20:03;;;;;;;7.65;4.10;;;16.40;99.90;;;;;;6271514;22;20014;-68
2023/09/04 05:22:49;;;;;;;6.13;3.83;;;16.40;99.90;;;;;;6249202;22;20041;-68
2023/09/04 05:25:35;;;;;;;5.53;3.70;;;16.40;99.90;;;;;;6268561;22;20069;-68
2023/09/04 05:28:21;;;;;;;7.38;4.57;;;16.50;99.90;;;;;;6270522;22;20015;-68
2023/09/04 05:31:07;;;;;;;10.02;4.63;;;16.50;99.90;;;;;;6271546;22;20098;-68
2023/09/04 05:33:53;;;;;;;4.80;3.55;;;16.60;99.90;;;;;;6250491;22;20015;-67
2023/09/04 05:36:39;;;;;;;7.28;3.47;;;16.60;99.90;;;;;;6270947;22;20007;-68
2023/09/04 05:39:25;;;;;;;5.93;4.28;;;16.70;99.90;;;;;;6271606;22;20400;-68
2023/09/04 05:42:11;;;;;;;8.80;4.50;;;16.70;99.90;;;;;;6266933;22;20023;-68
2023/09/04 05:44:56;;;;;;;10.45;4.32;;;16.70;99.90;;;;;;6268853;22;20019;-69
2023/09/04 05:47:43;;;;;;;5.70;4.05;;;16.80;99.90;;;;;;6270720;22;20015;-69
2023/09/04 05:50:29;;;;;;;6.03;3.90;;;16.80;99.90;;;;;;6269847;22;20081;-70
2023/09/04 05:53:15;;;;;;;5.00;3.90;;;16.90;99.90;;;;;;6248137;22;20019;-69
2023/09/04 05:56:06;;;;;;;6.38;3.58;;;16.90;99.90;;;;;;6268456;22;20007;-69
2023/09/04 05:58:52;;;;;;;5.85;4.18;;;17.00;99.90;;;;;;6269486;22;20031;-69
2023/09/04 06:01:38;;;;;;;5.38;3.92;;;17.00;99.90;;;;;;6269933;22;20400;-69
2023/09/04 06:04:24;;;;;;;6.20;4.22;;;17.10;99.90;;;;;;6249719;22;20016;-69
2023/09/04 06:07:10;;;;;;;6.07;3.80;;;17.20;99.90;;;;;;6271206;22;20210;-69
2023/09/04 06:09:56;;;;;;;5.50;4.43;;;17.20;99.90;;;;;;6271371;22;20102;-69
2023/09/04 06:12:42;;;;;;;5.80;3.97;;;17.20;99.90;;;;;;6268690;22;20593;-69
2023/09/04 06:15:28;;;;;;;8.73;4.85;;;17.30;99.90;;;;;;6268869;22;20004;-69
2023/09/04 06:18:14;;;;;;;9.30;4.80;;;17.30;99.90;;;;;;6271062;22;20054;-68
2023/09/04 06:21:00;;;;;;;6.82;5.00;;;17.40;99.90;;;;;;6268258;22;20098;-68
2023/09/04 06:23:46;;;;;;;6.80;4.47;;;17.40;99.90;;;;;;6267849;22;20012;-68
2023/09/04 06:26:32;;;;;;;10.73;4.88;;;17.50;99.90;;;;;;6268463;22;20007;-68
2023/09/04 06:29:18;;;;;;;7.35;5.35;;;17.60;99.90;;;;;;6271257;22;20323;-68
2023/09/04 06:32:04;;;;;;;8.48;5.28;;;17.70;99.90;;;;;;6271815;22;20153;-68
2023/09/04 06:34:50;;;;;;;7.15;5.30;;;17.70;99.90;;;;;;6272988;22;20057;-69
2023/09/04 06:37:36;;;;;;;8.35;5.13;;;17.80;99.90;;;;;;6272481;22;20518;-69
2023/09/04 06:40:22;;;;;;;7.78;5.40;;;17.90;99.90;;;;;;6271997;22;20420;-69
2023/09/04 06:43:09;;;;;;;7.80;5.63;;;17.90;99.90;;;;;;6271887;22;20061;-69
2023/09/04 06:45:55;;;;;;;12.07;5.78;;;18.00;99.90;;;;;;6272559;22;20022;-69
2023/09/04 06:48:41;;;;;;;7.40;4.88;;;18.00;99.90;;;;;;6272387;22;20027;-69
2023/09/04 06:51:28;;;;;;;9.07;6.03;;;18.10;99.90;;;;;;6272532;22;20077;-69
2023/09/04 06:54:14;;;;;;;7.82;5.00;;;18.20;99.90;;;;;;6273526;22;20039;-69
2023/09/04 06:57:02;;;;;;;11.50;5.68;;;18.30;99.90;;;;;;6272701;22;20008;-70
2023/09/04 06:59:48;;;;;;;12.40;6.63;;;18.30;99.90;;;;;;6273776;22;20098;-69
2023/09/04 07:02:34;;;;;;;6.05;4.53;;;18.40;99.90;;;;;;6272804;22;20070;-68
2023/09/04 07:05:20;;;;;;;12.23;5.35;;;18.40;99.90;;;;;;6271635;22;20082;-68
2023/09/04 07:08:06;;;;;;;8.88;4.90;;;18.50;99.90;;;;;;6273054;22;20088;-67
2023/09/04 07:10:53;;;;;;;6.35;4.40;;;18.60;99.90;;;;;;6248179;22;20035;-66
2023/09/04 07:13:39;;;;;;;8.73;4.63;;;18.70;99.90;;;;;;6273246;22;20012;-69
2023/09/04 07:16:25;;;;;;;6.70;3.70;;;18.70;99.90;;;;;;6270486;22;20016;-67
2023/09/04 07:19:11;;;;;;;9.10;4.20;;;18.80;99.90;;;;;;6273372;22;20020;-67
2023/09/04 07:21:57;;;;;;;6.75;3.90;;;18.90;99.90;;;;;;6272345;22;20023;-67
2023/09/04 07:24:43;;;;;;;7.35;4.53;;;19.00;99.80;;;;;;6272111;22;20004;-67
2023/09/04 07:27:29;;;;;;;6.88;4.15;;;19.00;99.90;;;;;;6272027;22;20095;-67
2023/09/04 07:30:15;;;;;;;7.10;4.07;;;19.10;99.60;;;;;;6247527;22;20049;-67
2023/09/04 07:33:01;;;;;;;6.10;3.72;;;19.20;99.60;;;;;;6272777;22;20035;-67
2023/09/04 07:35:56;;;;;;;5.80;3.03;;;19.20;99.40;;;;;;6270482;22;20375;-67
2023/09/04 07:38:45;;;;;;;5.10;3.13;;;19.20;99.50;;;;;;6272967;22;20012;-67
2023/09/04 07:41:30;;;;;;;6.10;3.90;;;19.30;99.20;;;;;;6271198;22;20134;-67
2023/09/04 07:44:16;;;;;;;8.18;4.00;;;19.40;99.20;;;;;;6272283;22;20003;-68
2023/09/04 07:47:03;;;;;;;7.40;3.67;;;19.40;99.00;;;;;;6272765;22;20449;-68
2023/09/04 07:49:50;;;;;;;7.60;3.80;;;19.40;99.00;;;;;;6272388;22;20035;-68
2023/09/04 07:52:36;;;;;;;4.65;3.28;;;19.50;98.90;;;;;;6273642;22;20061;-68
2023/09/04 07:55:22;;;;;;;4.30;2.92;;;19.60;98.80;;;;;;6271705;22;20004;-68
2023/09/04 07:58:07;;;;;;;4.07;2.58;;;19.60;98.70;;;;;;6271428;22;20011;-68
2023/09/04 08:00:53;;;;;;;5.15;3.00;;;19.70;98.60;;;;;;6270857;22;20081;-68
2023/09/04 08:03:41;;;;;;;3.63;2.50;;;19.70;98.40;;;;;;6251648;22;20011;-68
2023/09/04 08:06:26;;;;;;;8.48;3.15;;;19.80;98.40;;;;;;6272555;22;20032;-67
2023/09/04 08:09:13;;;;;;;3.85;2.47;;;19.80;98.10;;;;;;6272865;22;20344;-68
2023/09/04 08:11:59;;;;;;;3.42;2.25;;;19.90;98.00;;;;;;6272369;22;20468;-66
2023/09/04 08:14:47;;;;;;;3.47;2.40;;;19.90;97.90;;;;;;6271555;22;20433;-66
2023/09/04 08:17:34;;;;;;;7.18;2.45;;;20.00;97.70;;;;;;6270287;22;20027;-66
2023/09/04 08:20:20;;;;;;;5.85;2.30;;;20.10;97.60;;;;;;6249336;22;20399;-66
2023/09/04 08:23:09;;;;;;;3.80;2.40;;;20.10;97.50;;;;;;6268574;22;20354;-66
2023/09/04 08:25:59;;;;;;;5.05;2.20;;;20.20;97.20;;;;;;6270472;22;20008;-66
2023/09/04 08:28:45;;;;;;;3.15;1.90;;;20.20;97.20;;;;;;6249391;22;20023;-66
2023/09/04 08:31:31;;;;;;;3.28;2.00;;;20.30;96.90;;;;;;6271886;22;20007;-66
2023/09/04 08:34:17;;;;;;;5.28;2.35;;;20.30;96.90;;;;;;6272125;22;20074;-67
2023/09/04 08:37:03;;;;;;;4.32;2.63;;;20.40;96.70;;;;;;6269384;22;20008;-67
2023/09/04 08:39:49;;;;;;;2.88;2.00;;;20.50;96.70;;;;;;6268768;22;20014;-66
2023/09/04 08:42:38;;;;;;;2.50;1.98;;;20.50;96.60;;;;;;6270267;22;20034;-66
2023/09/04 08:45:24;;;;;;;5.70;2.20;;;20.50;96.50;;;;;;6271092;22;20008;-66
2023/09/04 08:48:12;;;;;;;5.15;2.20;;;20.60;96.40;;;;;;6269406;22;20423;-66
2023/09/04 08:50:58;;;;;;;4.35;2.67;;;20.70;96.30;;;;;;6249453;22;20008;-66
2023/09/04 08:53:45;;;;;;;4.05;2.10;;;20.70;96.20;;;;;;6268013;22;20046;-65
2023/09/04 08:56:31;;;;;;;4.80;2.63;;;20.80;96.10;;;;;;6272777;22;20065;-66
2023/09/04 08:59:17;;;;;;;3.65;2.05;;;20.90;96.00;;;;;;6271725;22;20014;-66
2023/09/04 09:02:04;;;;;;;7.18;2.58;;;20.90;95.90;;;;;;6271590;22;20019;-66
2023/09/04 09:04:51;;;;;;;8.80;3.08;;;21.00;95.90;;;;;;6273149;22;20464;-66
2023/09/04 09:07:39;;;;;;;5.78;2.33;;;21.00;95.80;;;;;;6271479;22;20438;-66
2023/09/04 09:10:25;;;;;;;4.03;2.00;;;21.10;95.70;;;;;;6269587;22;20007;-69
2023/09/04 09:13:14;;;;;;;3.33;2.15;;;21.20;95.60;;;;;;6271025;22;20388;-69
2023/09/04 09:16:00;;;;;;;2.90;2.05;;;21.20;95.40;;;;;;6271693;22;20018;-68
2023/09/04 09:18:48;;;;;;;5.15;2.08;;;21.30;95.40;;;;;;6269296;22;20016;-68
2023/09/04 09:21:34;;;;;;;4.68;2.30;;;21.40;95.60;;;;;;6269656;22;20019;-68
2023/09/04 09:24:20;;;;;;;4.68;2.40;;;21.40;95.30;;;;;;6272697;22;20008;-70
2023/09/04 09:27:06;;;;;;;4.15;2.40;;;21.50;95.10;;;;;;6269838;22;20050;-69
2023/09/04 09:29:57;;;;;;;3.25;2.20;;;21.50;95.10;;;;;;6270039;22;20131;-69
2023/09/04 09:32:43;;;;;;;3.30;2.10;;;21.60;95.00;;;;;;6271233;22;20012;-69
2023/09/04 09:35:32;;;;;;;5.43;2.78;;;21.70;95.00;;;;;;6270713;22;20060;-69
2023/09/04 09:38:18;;;;;;;3.22;2.10;;;21.70;94.80;;;;;;6271030;22;20008;-69
2023/09/04 09:41:04;;;;;;;4.20;2.42;;;21.80;94.70;;;;;;6271425;22;20015;-69
2023/09/04 09:43:50;;;;;;;3.05;2.00;;;21.90;94.60;;;;;;6269122;22;20030;-68
2023/09/04 09:46:37;;;;;;;3.88;2.13;;;21.90;94.70;;;;;;6269034;22;20014;-69
2023/09/04 09:49:23;;;;;;;4.13;2.17;;;22.00;94.40;;;;;;6270676;22;19999;-69
2023/09/04 09:52:11;;;;;;;3.17;1.90;;;22.00;94.30;;;;;;6271677;22;20345;-68
2023/09/04 09:54:56;;;;;;;3.17;2.22;;;22.10;94.20;;;;;;6271135;22;20041;-70
2023/09/04 09:57:42;;;;;;;4.70;2.78;;;22.20;94.00;;;;;;6249818;22;20361;-69
2023/09/04 10:00:29;;;;;;;3.35;2.22;;;22.20;93.50;;;;;;6269486;22;20508;-69
2023/09/04 10:03:15;;;;;;;3.25;2.30;;;22.20;93.40;;;;;;6271717;22;20020;-68
2023/09/04 10:06:04;;;;;;;7.85;2.30;;;22.30;93.20;;;;;;6247585;22;20452;-68
2023/09/04 10:08:52;;;;;;;4.55;2.35;;;22.30;93.20;;;;;;6249030;22;20387;-68
2023/09/04 10:11:42;;;;;;;4.28;2.08;;;22.40;93.20;;;;;;6270622;22;20011;-68
2023/09/04 10:14:39;;;;;;;3.42;2.50;;;22.50;93.20;;;;;;6269946;22;20019;-68
2023/09/04 10:17:50;;;;;;;3.45;2.10;;;22.50;93.20;;;;;;6269566;22;20098;-68
2023/09/04 10:20:36;;;;;;;3.15;2.17;;;22.60;93.20;;;;;;6270184;22;20464;-68
2023/09/04 10:23:37;;;;;;;4.05;2.10;;;22.70;93.00;;;;;;6271267;22;20012;-68
2023/09/04 10:26:27;;;;;;;5.68;2.03;;;22.70;92.70;;;;;;6271051;22;20008;-69
2023/09/04 10:29:18;;;;;;;5.55;2.17;;;22.80;92.60;;;;;;6270392;22;20011;-69
2023/09/04 10:32:04;;;;;;;3.88;2.85;;;22.90;92.20;;;;;;6270224;22;20014;-70
2023/09/04 10:34:50;;;;;;;5.20;2.50;;;22.90;92.10;;;;;;6272312;22;20111;-69
2023/09/04 10:37:40;;;;;;;4.75;2.78;;;23.00;92.10;;;;;;6269841;22;20011;-69
2023/09/04 10:40:28;;;;;;;3.03;1.90;;;23.00;92.00;;;;;;6270085;22;20007;-69
2023/09/04 10:43:15;;;;;;;3.38;2.20;;;23.10;91.90;;;;;;6271298;22;20484;-69
2023/09/04 10:46:09;;;;;;;6.18;2.70;;;23.20;92.00;;;;;;6269817;22;20501;-69
2023/09/04 10:48:55;;;;;;;4.15;1.90;;;23.20;91.80;;;;;;6271388;22;20090;-69
2023/09/04 10:51:47;;;;;;;5.97;2.95;;;23.30;91.50;;;;;;6271927;22;20007;-67
2023/09/04 10:54:33;;;;;;;5.07;2.30;;;23.30;91.30;;;;;;6270866;22;20016;-68
2023/09/04 10:57:21;;;;;;;4.15;2.47;;;23.30;90.90;;;;;;6270908;22;20065;-67
2023/09/04 11:00:07;;;;;;;3.15;1.92;;;23.40;91.00;;;;;;6270884;22;20007;-69
2023/09/04 11:02:53;;;;;;;16.63;2.40;;;23.40;90.70;;;;;;6269261;22;20019;-68
2023/09/04 11:06:08;;;;;;;6.60;2.00;;;23.50;90.50;;;;;;6248743;22;20077;-67
2023/09/04 11:08:54;;;;;;;5.03;1.90;;;23.50;90.60;;;;;;6270347;22;20016;-68
2023/09/04 11:11:40;;;;;;;2.88;1.95;;;23.50;90.30;;;;;;6271620;22;20437;-67
2023/09/04 11:14:32;;;;;;;3.42;1.90;;;23.50;90.00;;;;;;6266952;22;20357;-67
2023/09/04 11:17:31;;;;;;;3.03;1.73;;;23.50;90.00;;;;;;6271784;22;20027;-67
2023/09/04 11:20:22;;;;;;;3.17;1.80;;;23.60;89.80;;;;;;6272627;22;20315;-67
2023/09/04 11:23:09;;;;;;;5.53;2.15;;;23.50;89.10;;;;;;6271100;22;20035;-68
2023/09/04 11:25:56;;;;;;;3.47;1.95;;;23.50;88.40;;;;;;6250035;22;20019;-67
2023/09/04 11:28:42;;;;;;;4.25;2.45;;;23.60;88.40;;;;;;6270727;22;20062;-67
2023/09/04 11:31:30;;;;;;;5.68;2.42;;;23.60;89.20;;;;;;6269136;22;20084;-68
2023/09/04 11:34:22;;;;;;;4.40;2.45;;;23.70;89.50;;;;;;6272140;22;20008;-67
2023/09/04 11:37:08;;;;;;;3.05;1.95;;;23.80;89.00;;;;;;6270738;22;20884;-67
2023/09/04 11:39:55;;;;;;;3.42;1.83;;;23.80;88.30;;;;;;6273176;22;20450;-67
2023/09/04 11:42:41;;;;;;;3.63;2.15;;;23.80;88.30;;;;;;6269393;22;20020;-67
2023/09/04 11:45:27;;;;;;;3.25;2.20;;;23.90;88.10;;;;;;6272073;22;20445;-67
2023/09/04 11:48:15;;;;;;;3.40;2.13;;;24.00;87.50;;;;;;6272094;22;20035;-67
2023/09/04 11:51:02;;;;;;;4.72;2.85;;;24.00;87.20;;;;;;6271551;22;20070;-67
2023/09/04 11:53:48;;;;;;;3.80;2.13;;;24.10;86.80;;;;;;6271224;22;20081;-67
2023/09/04 11:56:35;;;;;;;2.97;2.00;;;24.10;86.10;;;;;;6272042;22;20014;-67
2023/09/04 11:59:21;;;;;;;7.13;2.20;;;24.20;86.60;;;;;;6270415;22;20058;-67
2023/09/04 12:02:08;;;;;;;4.68;2.00;;;24.20;86.30;;;;;;6270493;22;20020;-67
2023/09/04 12:04:56;;;;;;;4.30;2.08;;;24.30;86.30;;;;;;6271715;22;20008;-67
2023/09/04 12:07:42;;;;;;;3.65;2.13;;;24.30;85.90;;;;;;6270179;22;20016;-67
2023/09/04 12:10:28;;;;;;;5.93;1.90;;;24.40;85.90;;;;;;6274070;22;20007;-67
2023/09/04 12:13:15;;;;;;;3.20;2.10;;;24.40;86.30;;;;;;6269858;22;20021;-67
2023/09/04 12:16:07;;;;;;;8.00;1.70;;;24.50;85.00;;;;;;6269975;22;20387;-67
2023/09/04 12:18:54;;;;;;;3.17;2.42;;;24.50;84.40;;;;;;6249825;22;20074;-67
2023/09/04 12:21:40;;;;;;;3.78;2.38;;;24.60;84.60;;;;;;6272619;22;20449;-67
2023/09/04 12:24:26;;;;;;;2.85;1.65;;;24.60;84.90;;;;;;6271115;22;20008;-67
2023/09/04 12:27:13;;;;;;;3.40;2.05;;;24.70;85.10;;;;;;6270899;22;20103;-66
2023/09/04 12:29:59;;;;;;;5.50;2.00;;;24.70;85.10;;;;;;6270876;22;20082;-66
2023/09/04 12:32:48;;;;;;;3.50;2.28;;;24.80;84.60;;;;;;6270126;22;20441;-66
2023/09/04 12:35:35;;;;;;;4.63;2.08;;;24.90;84.70;;;;;;6271560;22;20014;-66
2023/09/04 12:38:21;;;;;;;5.05;2.00;;;25.00;84.70;;;;;;6268150;22;20528;-67
2023/09/04 12:41:07;;;;;;;3.95;1.73;;;25.00;83.80;;;;;;6272557;22;20019;-67
2023/09/04 12:43:53;;;;;;;4.25;1.90;;;25.10;83.60;;;;;;6251321;22;20012;-67
2023/09/04 12:46:39;;;;;;;3.38;2.30;;;25.10;82.80;;;;;;6269271;22;20022;-67
2023/09/04 12:49:25;;;;;;;6.00;1.98;;;25.10;82.10;;;;;;6270455;22;20026;-67
2023/09/04 12:52:11;;;;;;;3.67;1.90;;;25.20;82.10;;;;;;6271573;22;20158;-67
2023/09/04 12:54:57;;;;;;;3.58;1.90;;;25.30;82.30;;;;;;6271880;22;20012;-67
2023/09/04 12:57:45;;;;;;;4.22;2.00;;;25.30;81.50;;;;;;6273134;22;20012;-66
2023/09/04 13:00:32;;;;;;;3.10;1.98;;;25.30;81.60;;;;;;6271815;22;20449;-67
2023/09/04 13:03:18;;;;;;;3.35;2.22;;;25.40;81.20;;;;;;6268454;22;20008;-67
2023/09/04 13:06:03;;;;;;;3.50;2.45;;;25.50;80.40;;;;;;6270152;22;20011;-67
2023/09/04 13:08:49;;;;;;;3.80;2.08;;;25.50;80.10;;;;;;6270797;22;20102;-67
2023/09/04 13:11:35;;;;;;;3.83;2.40;;;25.50;79.90;;;;;;6269413;22;20350;-67
2023/09/04 13:14:21;;;;;;;2.92;1.80;;;25.50;79.40;;;;;;6250044;22;20008;-67
2023/09/04 13:17:08;;;;;;;3.05;2.05;;;25.60;79.60;;;;;;6271870;22;20062;-67
2023/09/04 13:19:54;;;;;;;4.22;2.25;;;25.60;78.90;;;;;;6270732;22;20372;-67
2023/09/04 13:22:41;;;;;;;4.97;2.85;;;25.60;79.30;;;;;;6270390;22;20029;-67
2023/09/04 13:25:27;;;;;;;2.92;1.80;;;25.60;78.70;;;;;;6270353;22;20018;-67
2023/09/04 13:28:13;;;;;;;3.97;2.03;;;25.70;79.30;;;;;;6266662;22;20012;-67
2023/09/04 13:30:59;;;;;;;3.00;1.95;;;25.80;79.20;;;;;;6271452;22;20019;-67
2023/09/04 13:33:45;;;;;;;5.25;2.10;;;25.90;78.70;;;;;;6270003;22;20003;-66
2023/09/04 13:36:31;;;;;;;3.58;1.80;;;26.00;78.60;;;;;;6269812;22;20011;-67
2023/09/04 13:39:17;;;;;;;3.63;1.88;;;26.00;78.70;;;;;;6268625;22;20015;-67
2023/09/04 13:42:04;;;;;;;4.30;1.80;;;26.10;77.90;;;;;;6271764;22;20027;-67
2023/09/04 13:44:50;;;;;;;5.93;2.13;;;26.20;77.10;;;;;;6269779;22;20034;-66
2023/09/04 13:47:36;;;;;;;4.57;2.42;;;26.30;76.60;;;;;;6268639;22;20388;-67
2023/09/04 13:50:22;;;;;;;3.60;2.38;;;26.30;76.20;;;;;;6267953;22;20015;-66
2023/09/04 13:53:07;;;;;;;2.00;1.50;;;26.40;75.90;;;;;;6270340;22;20055;-66
2023/09/04 13:55:53;;;;;;;3.50;2.33;;;26.50;75.90;;;;;;6270464;22;20073;-66
2023/09/04 13:58:39;;;;;;;6.78;2.42;;;26.50;76.10;;;;;;6268164;22;20018;-70
2023/09/04 14:01:25;;;;;;;3.55;2.30;;;26.60;76.20;;;;;;6249641;22;20460;-68
2023/09/04 14:04:11;;;;;;;3.05;1.85;;;26.80;76.80;;;;;;6270878;22;20066;-67
2023/09/04 14:06:57;;;;;;;4.68;2.35;;;26.90;76.30;;;;;;6271672;22;20345;-65
2023/09/04 14:09:43;;;;;;;3.83;2.00;;;26.90;75.70;;;;;;6270516;22;20345;-67
2023/09/04 14:12:29;;;;;;;3.83;2.28;;;27.00;75.80;;;;;;6271924;22;20396;-67
2023/09/04 14:15:15;;;;;;;4.38;2.58;;;27.10;75.90;;;;;;6268638;22;20008;-68
2023/09/04 14:18:01;;;;;;;3.42;2.08;;;27.20;75.90;;;;;;6270153;22;20153;-68
2023/09/04 14:20:47;;;;;;;2.47;2.03;;;27.30;75.50;;;;;;6272041;22;20011;-68
2023/09/04 14:23:33;;;;;;;3.30;1.90;;;27.30;75.40;;;;;;6271266;22;20441;-68
2023/09/04 14:26:19;;;;;;;3.42;2.00;;;27.40;74.70;;;;;;6270964;22;20015;-68
2023/09/04 14:29:05;;;;;;;3.80;2.28;;;27.30;74.60;;;;;;6270939;22;20091;-68